createdAt,value
2022-12-09T00:00:47.753Z,27.63
2022-12-09T00:06:29.070Z,16.87
2022-12-09T00:11:31.293Z,24.70
2022-12-09T00:16:33.749Z,20.80
2022-12-09T00:21:36.256Z,18.60
2022-12-09T00:26:38.930Z,20.23
2022-12-09T00:31:41.237Z,23.07
2022-12-09T00:36:43.573Z,20.33
2022-12-09T00:41:46.581Z,20.80
2022-12-09T00:46:48.977Z,16.93
2022-12-09T00:51:51.418Z,19.57
2022-12-09T00:56:53.655Z,25.70
2022-12-09T01:01:55.783Z,22.57
2022-12-09T01:06:58.124Z,20.70
2022-12-09T01:12:04.182Z,19.80
2022-12-09T01:17:06.361Z,19.67
2022-12-09T01:22:08.590Z,24.70
2022-12-09T01:27:11.058Z,24.10
2022-12-09T01:32:13.617Z,20.63
2022-12-09T01:37:16.225Z,21.93
2022-12-09T01:42:24.032Z,18.00
2022-12-09T01:47:26.452Z,21.57
2022-12-09T01:52:28.708Z,18.70
2022-12-09T01:57:31.773Z,21.37
2022-12-09T02:02:36.904Z,19.97
2022-12-09T02:07:39.653Z,19.33
2022-12-09T02:13:05.178Z,21.17
2022-12-09T02:18:51.859Z,17.37
2022-12-09T02:24:01.888Z,18.83
2022-12-09T02:29:40.777Z,13.90
2022-12-09T02:34:59.169Z,17.27
2022-12-09T02:40:14.275Z,19.47
2022-12-09T02:45:18.537Z,18.53
2022-12-09T02:50:29.097Z,20.20
2022-12-09T02:55:33.112Z,19.77
2022-12-09T03:00:35.835Z,18.60
2022-12-09T03:06:02.430Z,22.07
2022-12-09T03:11:09.896Z,18.23
2022-12-09T03:16:15.254Z,15.40
2022-12-09T03:21:20.547Z,17.33
2022-12-09T03:26:23.653Z,17.57
2022-12-09T03:31:29.577Z,16.33
2022-12-09T03:36:37.992Z,17.77
2022-12-09T03:41:45.857Z,17.03
2022-12-09T03:46:48.364Z,13.37
2022-12-09T03:51:57.985Z,12.83
2022-12-09T03:57:01.297Z,12.17
2022-12-09T04:02:07.581Z,11.93
2022-12-09T04:07:11.021Z,12.67
2022-12-09T04:12:16.910Z,14.00
2022-12-09T04:17:19.605Z,13.53
2022-12-09T04:22:21.955Z,16.70
2022-12-09T04:27:24.536Z,13.37
2022-12-09T04:32:26.869Z,17.90
2022-12-09T04:37:29.505Z,14.97
2022-12-09T04:42:32.004Z,17.70
2022-12-09T04:47:35.122Z,16.43
2022-12-09T04:52:37.493Z,16.20
2022-12-09T04:57:40.040Z,17.40
2022-12-09T05:02:42.374Z,23.40
2022-12-09T05:07:45.077Z,17.93
2022-12-09T05:12:47.506Z,19.80
2022-12-09T05:17:50.001Z,18.90
2022-12-09T05:22:52.576Z,21.53
2022-12-09T05:27:55.151Z,18.63
2022-12-09T05:32:57.608Z,21.73
2022-12-09T05:38:00.039Z,21.63
2022-12-09T05:43:04.577Z,21.87
2022-12-09T05:48:07.499Z,23.03
2022-12-09T05:53:10.051Z,25.90
2022-12-09T05:58:12.237Z,32.27
2022-12-09T06:03:15.485Z,31.13
2022-12-09T06:08:18.892Z,33.77
2022-12-09T06:13:21.166Z,26.93
2022-12-09T06:18:23.714Z,32.57
2022-12-09T06:23:26.984Z,29.20
2022-12-09T06:28:29.596Z,40.33
2022-12-09T06:38:54.764Z,30.63
2022-12-09T06:43:58.378Z,33.53
2022-12-09T06:49:00.985Z,33.47
2022-12-09T06:54:05.193Z,30.90
2022-12-09T06:59:09.352Z,31.90
2022-12-09T07:04:13.965Z,41.47
2022-12-09T07:09:19.947Z,46.67
2022-12-09T07:14:22.295Z,38.77
2022-12-09T07:19:24.794Z,35.13
2022-12-09T07:24:27.248Z,33.83
2022-12-09T07:29:33.636Z,36.37
2022-12-09T07:34:36.604Z,29.57
2022-12-09T07:39:38.860Z,44.83
2022-12-09T07:44:41.268Z,34.97
2022-12-09T07:49:43.826Z,35.80
2022-12-09T07:54:46.006Z,36.63
2022-12-09T07:59:48.746Z,41.00
2022-12-09T08:04:51.349Z,36.43
2022-12-09T08:09:57.247Z,36.03
2022-12-09T08:14:59.652Z,33.80
2022-12-09T08:20:02.412Z,37.17
2022-12-09T08:25:06.361Z,41.40
2022-12-09T08:30:10.013Z,40.87
2022-12-09T08:35:15.656Z,41.50
2022-12-09T08:40:19.174Z,39.27
2022-12-09T08:45:21.871Z,41.80
2022-12-09T08:50:24.416Z,44.53
2022-12-09T08:55:27.892Z,34.53
2022-12-09T09:00:30.594Z,36.63
2022-12-09T09:05:33.109Z,27.37
2022-12-09T09:10:37.426Z,36.87
2022-12-09T09:15:40.529Z,31.33
2022-12-09T09:20:52.546Z,39.47
2022-12-09T09:25:54.992Z,31.10
2022-12-09T09:31:06.309Z,40.53
2022-12-09T09:36:11.678Z,39.17
2022-12-09T09:41:26.307Z,36.53
2022-12-09T09:46:38.112Z,30.23
2022-12-09T09:51:40.773Z,32.70
2022-12-09T09:56:51.932Z,39.53
2022-12-09T10:02:19.951Z,32.53
2022-12-09T10:07:36.465Z,33.10
2022-12-09T10:13:05.057Z,30.53
2022-12-09T10:18:19.201Z,28.00
2022-12-09T10:23:22.492Z,27.27
2022-12-09T10:28:27.747Z,26.87
2022-12-09T10:33:34.355Z,31.70
2022-12-09T10:38:38.988Z,31.40
2022-12-09T10:43:43.202Z,28.60
2022-12-09T10:48:49.049Z,32.80
2022-12-09T10:53:53.256Z,31.10
2022-12-09T10:59:23.291Z,33.00
2022-12-09T11:04:28.295Z,27.17
2022-12-09T11:09:36.585Z,24.87
2022-12-09T11:14:51.104Z,24.67
2022-12-09T11:20:22.554Z,28.47
2022-12-09T11:25:31.950Z,28.23
2022-12-09T11:30:57.482Z,25.73
2022-12-09T11:41:16.386Z,37.93
2022-12-09T11:46:28.607Z,30.80
2022-12-09T11:51:33.367Z,30.83
2022-12-09T11:56:48.336Z,31.20
2022-12-09T12:02:05.267Z,32.87
2022-12-09T12:07:18.452Z,37.63
2022-12-09T12:12:29.451Z,39.03
2022-12-09T12:17:38.485Z,31.00
2022-12-09T12:23:06.444Z,31.33
2022-12-09T12:28:26.893Z,37.57
2022-12-09T12:34:07.723Z,26.70
2022-12-09T12:39:22.869Z,34.57
2022-12-09T12:44:58.270Z,30.23
2022-12-09T12:50:03.386Z,31.43
2022-12-09T12:55:23.769Z,29.30
2022-12-09T13:00:32.020Z,29.17
2022-12-09T13:05:43.958Z,19.53
2022-12-09T13:10:50.827Z,25.77
2022-12-09T13:15:55.543Z,29.70
2022-12-09T13:20:59.837Z,24.57
2022-12-09T13:26:17.172Z,26.73
2022-12-09T13:31:22.631Z,29.97
2022-12-09T13:36:37.947Z,19.73
2022-12-09T13:42:08.668Z,24.97
2022-12-09T13:47:35.241Z,22.83
2022-12-09T13:52:43.828Z,25.93
2022-12-09T13:58:18.222Z,25.13
2022-12-09T14:03:35.219Z,24.93
2022-12-09T14:08:41.884Z,25.67
2022-12-09T14:13:44.242Z,26.47
2022-12-09T14:18:46.421Z,29.83
2022-12-09T14:24:16.538Z,22.03
2022-12-09T14:29:55.920Z,28.20
2022-12-09T14:35:11.978Z,26.33
2022-12-09T14:40:14.150Z,25.27
2022-12-09T14:45:33.559Z,26.33
2022-12-09T14:50:38.818Z,25.25
2022-12-09T14:55:44.698Z,26.33
2022-12-09T15:01:03.685Z,22.50
2022-12-09T15:06:17.571Z,24.75
2022-12-09T15:11:23.770Z,27.13
2022-12-09T15:16:26.622Z,20.20
2022-12-09T15:21:31.866Z,22.23
2022-12-09T15:26:34.476Z,22.07
2022-12-09T15:31:47.636Z,21.57
2022-12-09T15:36:59.567Z,29.60
2022-12-09T15:42:13.651Z,23.43
2022-12-09T15:47:39.729Z,19.17
2022-12-09T15:53:00.564Z,27.17
2022-12-09T15:58:05.975Z,22.70
2022-12-09T16:03:08.922Z,19.77
2022-12-09T16:08:11.588Z,22.37
2022-12-09T16:13:18.394Z,21.50
2022-12-09T16:18:43.787Z,18.10
2022-12-09T16:23:48.700Z,28.53
2022-12-09T16:28:59.014Z,24.03
2022-12-09T16:34:01.192Z,24.00
2022-12-09T16:39:09.366Z,21.77
2022-12-09T16:44:22.150Z,18.70
2022-12-09T16:49:24.326Z,21.13
2022-12-09T16:54:37.643Z,26.60
2022-12-09T16:59:40.294Z,29.70
2022-12-09T17:04:42.604Z,23.50
2022-12-09T17:09:44.866Z,24.17
2022-12-09T17:14:47.113Z,20.27
2022-12-09T17:19:49.649Z,21.90
2022-12-09T17:24:51.867Z,19.40
2022-12-09T17:29:54.280Z,21.37
2022-12-09T17:34:56.473Z,18.53
2022-12-09T17:40:03.432Z,19.33
2022-12-09T17:45:07.467Z,21.47
2022-12-09T17:50:13.354Z,14.87
2022-12-09T17:55:18.919Z,21.17
2022-12-09T18:00:21.157Z,21.33
2022-12-09T18:05:23.328Z,24.20
2022-12-09T18:10:25.609Z,18.00
2022-12-09T18:15:27.808Z,21.43
2022-12-09T18:20:30.005Z,24.30
2022-12-09T18:25:32.133Z,18.43
2022-12-09T18:30:40.376Z,17.37
2022-12-09T18:35:42.927Z,20.10
2022-12-09T18:41:04.239Z,20.37
2022-12-09T18:46:09.298Z,17.60
2022-12-09T18:51:19.603Z,15.97
2022-12-09T18:56:21.835Z,25.13
2022-12-09T19:01:26.791Z,16.80
2022-12-09T19:06:35.672Z,17.83
2022-12-09T19:11:39.750Z,20.80
2022-12-09T19:16:44.936Z,22.97
2022-12-09T19:21:47.733Z,19.37
2022-12-09T19:26:53.314Z,20.90
2022-12-09T19:31:58.299Z,24.63
2022-12-09T19:37:01.570Z,17.90
2022-12-09T19:42:05.432Z,21.70
2022-12-09T19:47:08.867Z,20.10
2022-12-09T19:52:12.282Z,18.97
2022-12-09T19:57:14.648Z,20.53
2022-12-09T20:02:17.918Z,20.40
2022-12-09T20:07:23.552Z,23.73
2022-12-09T20:12:26.204Z,21.60
2022-12-09T20:17:28.478Z,17.00
2022-12-09T20:22:31.092Z,17.37
2022-12-09T20:27:37.267Z,19.47
2022-12-09T20:32:39.505Z,20.73
2022-12-09T20:37:44.149Z,18.27
2022-12-09T20:42:46.410Z,17.90
2022-12-09T20:47:48.702Z,20.47
2022-12-09T20:52:51.402Z,16.93
2022-12-09T20:57:56.056Z,24.30
2022-12-09T21:02:58.575Z,22.37
2022-12-09T21:08:00.755Z,18.00
2022-12-09T21:13:03.311Z,20.10
2022-12-09T21:18:05.615Z,19.23
2022-12-09T21:23:32.670Z,22.40
2022-12-09T21:28:30.328Z,20.60
2022-12-09T21:33:32.609Z,23.93
2022-12-09T21:38:36.477Z,21.17
2022-12-09T21:43:39.076Z,25.37
2022-12-09T21:48:41.471Z,27.10
2022-12-09T21:53:44.379Z,25.67
2022-12-09T21:58:48.108Z,26.43
2022-12-09T22:03:50.444Z,29.47
2022-12-09T22:08:52.863Z,28.70
2022-12-09T22:13:58.208Z,30.97
2022-12-09T22:19:01.787Z,24.77
2022-12-09T22:24:05.891Z,26.00
2022-12-09T22:29:08.246Z,30.20
2022-12-09T22:34:16.534Z,26.60
2022-12-09T22:39:21.985Z,22.13
2022-12-09T22:44:24.328Z,26.63
2022-12-09T22:49:26.594Z,27.57
2022-12-09T22:54:29.025Z,29.53
2022-12-09T22:59:31.418Z,27.97
2022-12-09T23:04:36.564Z,31.77
2022-12-09T23:09:38.848Z,28.00
2022-12-09T23:14:41.062Z,28.23
2022-12-09T23:19:43.343Z,28.90
2022-12-09T23:24:45.682Z,24.83
2022-12-09T23:29:48.000Z,26.03
2022-12-09T23:34:50.228Z,25.03
2022-12-09T23:39:52.477Z,25.00
2022-12-09T23:44:55.041Z,22.77
2022-12-09T23:49:57.809Z,24.23
2022-12-09T23:55:04.319Z,26.43
